Time;durP1;ratioP1;P1;durP2;ratioP2;P2;SDS_P1;SDS_P2;PMS_P1;PMS_P2;Temp;Humidity;BMP_temperature;BMP_pressure;BME280_temperature;BME280_humidity;BME280_pressure;Samples;Min_cycle;Max_cycle;Signal;HPM_P1;HPM_P2
2023/05/17 00:01:13;;;;;;;12.70;5.50;;;;;;;;;;10278172;28;20065;-70
2023/05/17 00:06:09;;;;;;;17.55;5.55;;;;;;;;;;10263565;28;20136;-70
2023/05/17 00:11:05;;;;;;;23.73;5.78;;;;;;;;;;10264162;28;20056;-70
2023/05/17 00:16:02;;;;;;;18.60;5.53;;;;;;;;;;10244539;28;20078;-70
2023/05/17 00:20:59;;;;;;;16.95;5.65;;;;;;;;;;10230821;28;20042;-70
2023/05/17 00:25:55;;;;;;;15.90;5.32;;;;;;;;;;10243173;28;20052;-70
2023/05/17 00:30:51;;;;;;;13.70;5.55;;;;;;;;;;10229034;28;20451;-70
2023/05/17 00:35:48;;;;;;;17.17;4.45;;;;;;;;;;10255656;28;20045;-70
2023/05/17 00:40:44;;;;;;;19.73;5.30;;;;;;;;;;10199865;28;20050;-70
2023/05/17 00:45:40;;;;;;;18.58;5.72;;;;;;;;;;10226096;28;20049;-70
2023/05/17 00:50:37;;;;;;;22.65;7.00;;;;;;;;;;10195012;28;20186;-70
2023/05/17 00:55:33;;;;;;;19.83;5.13;;;;;;;;;;10229121;28;20057;-70
2023/05/17 01:00:30;;;;;;;22.23;5.78;;;;;;;;;;10195483;28;20053;-71
2023/05/17 01:05:27;;;;;;;18.52;5.22;;;;;;;;;;10231651;28;20458;-70
2023/05/17 01:10:33;;;;;;;21.98;6.32;;;;;;;;;;10273309;28;20583;-71
2023/05/17 01:15:31;;;;;;;19.63;5.50;;;;;;;;;;10262793;28;20698;-71
2023/05/17 01:20:31;;;;;;;18.13;6.75;;;;;;;;;;10274122;28;20056;-71
2023/05/17 01:25:41;;;;;;;18.23;6.60;;;;;;;;;;10255886;28;20526;-70
2023/05/17 01:30:38;;;;;;;21.67;5.72;;;;;;;;;;10274390;28;20044;-70
2023/05/17 01:35:34;;;;;;;18.83;5.63;;;;;;;;;;10236738;28;20045;-70
2023/05/17 01:40:32;;;;;;;13.75;5.20;;;;;;;;;;10249952;28;20052;-70
2023/05/17 01:45:30;;;;;;;18.65;5.22;;;;;;;;;;10232132;28;20048;-70
2023/05/17 01:50:29;;;;;;;21.27;5.93;;;;;;;;;;10221416;28;20053;-69
2023/05/17 01:55:33;;;;;;;19.02;5.57;;;;;;;;;;10230933;28;20068;-70
2023/05/17 02:00:29;;;;;;;15.50;4.90;;;;;;;;;;10213484;28;20083;-70
2023/05/17 02:05:26;;;;;;;14.00;4.65;;;;;;;;;;10218032;28;20714;-70
2023/05/17 02:10:22;;;;;;;15.45;4.97;;;;;;;;;;10208021;28;20045;-70
2023/05/17 02:15:18;;;;;;;13.45;4.65;;;;;;;;;;10213842;28;20046;-70
2023/05/17 02:20:15;;;;;;;20.48;5.38;;;;;;;;;;10192157;28;20058;-69
2023/05/17 02:25:11;;;;;;;14.25;4.40;;;;;;;;;;10227082;28;20052;-72
2023/05/17 02:30:08;;;;;;;11.32;3.88;;;;;;;;;;10269069;28;20041;-72
2023/05/17 02:35:04;;;;;;;13.05;4.43;;;;;;;;;;10225010;28;20045;-72
2023/05/17 02:40:00;;;;;;;15.77;4.28;;;;;;;;;;10240965;28;20054;-71
2023/05/17 02:44:57;;;;;;;16.27;4.22;;;;;;;;;;10222219;28;20054;-72
2023/05/17 02:49:53;;;;;;;8.95;3.70;;;;;;;;;;10220578;28;20046;-72
2023/05/17 02:54:50;;;;;;;20.20;6.07;;;;;;;;;;10220561;28;20513;-72
2023/05/17 02:59:46;;;;;;;15.32;5.03;;;;;;;;;;10196766;28;20049;-72
2023/05/17 03:04:43;;;;;;;13.10;3.63;;;;;;;;;;10200302;28;20104;-71
2023/05/17 03:09:40;;;;;;;17.17;5.15;;;;;;;;;;10198698;28;20052;-71
2023/05/17 03:14:37;;;;;;;10.23;4.40;;;;;;;;;;10223648;28;20053;-72
2023/05/17 03:19:33;;;;;;;14.95;5.13;;;;;;;;;;10278184;28;20048;-72
2023/05/17 03:24:30;;;;;;;17.50;4.38;;;;;;;;;;10261752;28;20045;-72
2023/05/17 03:29:26;;;;;;;14.93;5.07;;;;;;;;;;10278952;28;20468;-72
2023/05/17 03:34:22;;;;;;;10.93;4.53;;;;;;;;;;10266152;28;20052;-73
2023/05/17 03:39:18;;;;;;;17.85;4.65;;;;;;;;;;10278621;28;20056;-73
2023/05/17 03:44:15;;;;;;;12.15;3.97;;;;;;;;;;10254140;28;20102;-72
2023/05/17 03:49:11;;;;;;;11.73;4.25;;;;;;;;;;10276669;28;20045;-73
2023/05/17 03:54:07;;;;;;;13.32;5.22;;;;;;;;;;10214414;28;20112;-72
2023/05/17 03:59:04;;;;;;;20.05;5.57;;;;;;;;;;10249836;28;20046;-72
2023/05/17 04:04:03;;;;;;;8.55;4.22;;;;;;;;;;10227526;28;20905;-72
2023/05/17 04:08:59;;;;;;;14.13;4.63;;;;;;;;;;10244668;28;20467;-71
2023/05/17 04:13:56;;;;;;;16.98;4.70;;;;;;;;;;10210681;28;20072;-70
2023/05/17 04:18:52;;;;;;;13.93;4.43;;;;;;;;;;10221979;28;20072;-70
2023/05/17 04:23:48;;;;;;;15.25;5.60;;;;;;;;;;10208586;28;20045;-70
2023/05/17 04:28:45;;;;;;;15.38;5.40;;;;;;;;;;10220836;28;20069;-70
2023/05/17 04:33:41;;;;;;;16.83;6.05;;;;;;;;;;10205944;28;20564;-70
2023/05/17 04:38:37;;;;;;;16.58;5.97;;;;;;;;;;10196729;28;20464;-71
2023/05/17 04:43:34;;;;;;;16.20;6.78;;;;;;;;;;10195129;28;20058;-71
2023/05/17 04:48:31;;;;;;;14.43;5.72;;;;;;;;;;10210372;28;20645;-71
2023/05/17 04:53:27;;;;;;;13.50;6.28;;;;;;;;;;10216441;28;20087;-72
2023/05/17 04:58:24;;;;;;;18.23;7.68;;;;;;;;;;10275352;28;20107;-70
2023/05/17 05:03:23;;;;;;;14.73;6.80;;;;;;;;;;10246986;28;20064;-72
2023/05/17 05:08:20;;;;;;;25.60;6.95;;;;;;;;;;10274973;28;20136;-72
2023/05/17 05:13:16;;;;;;;19.75;8.00;;;;;;;;;;10201438;28;20133;-72
2023/05/17 05:18:12;;;;;;;16.27;7.57;;;;;;;;;;10250029;28;20569;-72
2023/05/17 05:23:09;;;;;;;17.13;7.43;;;;;;;;;;10194586;28;20423;-72
2023/05/17 05:28:05;;;;;;;16.17;7.18;;;;;;;;;;10216954;28;20424;-72
2023/05/17 05:33:02;;;;;;;14.57;6.93;;;;;;;;;;10193843;28;20073;-72
2023/05/17 05:37:59;;;;;;;17.35;7.05;;;;;;;;;;10211400;28;20758;-72
2023/05/17 05:42:55;;;;;;;14.52;7.80;;;;;;;;;;10193748;28;20080;-72
2023/05/17 05:47:52;;;;;;;13.82;7.10;;;;;;;;;;10272225;28;20048;-72
2023/05/17 05:52:48;;;;;;;29.23;8.57;;;;;;;;;;10256710;28;20500;-72
2023/05/17 05:57:44;;;;;;;17.25;7.40;;;;;;;;;;10269470;28;20041;-72
2023/05/17 06:02:41;;;;;;;17.50;7.43;;;;;;;;;;10245743;28;20474;-72
2023/05/17 06:07:40;;;;;;;13.25;6.35;;;;;;;;;;10270112;28;20049;-72
2023/05/17 06:12:36;;;;;;;18.38;6.53;;;;;;;;;;10221151;28;20503;-71
2023/05/17 06:17:35;;;;;;;12.02;6.72;;;;;;;;;;10266588;28;20052;-71
2023/05/17 06:22:31;;;;;;;13.25;7.63;;;;;;;;;;10203577;28;20088;-72
2023/05/17 06:27:34;;;;;;;13.80;6.15;;;;;;;;;;10260977;28;20079;-72
2023/05/17 06:32:33;;;;;;;;;;;;;;;;;;10195049;28;20133;-72
2023/05/17 06:37:30;;;;;;;15.38;5.88;;;;;;;;;;10235821;28;19972;-71
2023/05/17 06:42:27;;;;;;;11.60;6.88;;;;;;;;;;10200594;28;20084;-73
2023/05/17 06:47:23;;;;;;;17.38;5.72;;;;;;;;;;10206204;28;20046;-72
2023/05/17 06:52:20;;;;;;;13.75;5.93;;;;;;;;;;10200090;28;20108;-73
2023/05/17 06:57:16;;;;;;;11.20;4.93;;;;;;;;;;10268191;28;20049;-72
2023/05/17 07:02:12;;;;;;;16.38;5.70;;;;;;;;;;10273521;28;20104;-72
2023/05/17 07:07:09;;;;;;;19.95;6.60;;;;;;;;;;10265555;28;20107;-72
2023/05/17 07:12:05;;;;;;;9.70;4.85;;;;;;;;;;10254384;28;20060;-71
2023/05/17 07:17:02;;;;;;;13.85;4.95;;;;;;;;;;10263851;28;20052;-72
2023/05/17 07:21:58;;;;;;;16.65;4.90;;;;;;;;;;10251783;28;20046;-72
2023/05/17 07:26:54;;;;;;;13.77;5.78;;;;;;;;;;10261467;28;20421;-71
2023/05/17 07:31:50;;;;;;;7.00;4.57;;;;;;;;;;10212808;28;20057;-71
2023/05/17 07:36:47;;;;;;;16.23;5.93;;;;;;;;;;10267105;28;20426;-71
2023/05/17 07:41:43;;;;;;;12.27;5.25;;;;;;;;;;10213151;28;20053;-71
2023/05/17 07:46:40;;;;;;;11.82;4.95;;;;;;;;;;10255435;28;20049;-71
2023/05/17 07:51:36;;;;;;;21.10;5.40;;;;;;;;;;10214124;28;20133;-71
2023/05/17 07:56:32;;;;;;;13.57;5.80;;;;;;;;;;10254219;28;20053;-71
2023/05/17 08:01:29;;;;;;;13.65;6.05;;;;;;;;;;10214470;28;20046;-71
2023/05/17 08:06:26;;;;;;;11.25;5.18;;;;;;;;;;10249908;28;20049;-71
2023/05/17 08:11:22;;;;;;;12.13;5.68;;;;;;;;;;10195434;28;20050;-70
2023/05/17 08:16:18;;;;;;;9.18;5.18;;;;;;;;;;10223087;28;20107;-71
2023/05/17 08:21:15;;;;;;;9.13;5.43;;;;;;;;;;10196107;28;20058;-71
2023/05/17 08:26:12;;;;;;;13.95;6.18;;;;;;;;;;10214336;28;20049;-71
2023/05/17 08:31:08;;;;;;;12.50;5.15;;;;;;;;;;10195949;28;20507;-71
2023/05/17 08:36:07;;;;;;;16.33;5.88;;;;;;;;;;10245170;28;20119;-71
2023/05/17 08:41:03;;;;;;;11.27;5.82;;;;;;;;;;10276539;28;20045;-71
2023/05/17 08:46:02;;;;;;;11.15;5.32;;;;;;;;;;10257514;28;20045;-71
2023/05/17 08:50:58;;;;;;;11.05;5.32;;;;;;;;;;10262630;28;20041;-72
2023/05/17 08:55:59;;;;;;;10.32;5.30;;;;;;;;;;10241086;28;20045;-71
2023/05/17 09:00:57;;;;;;;13.70;5.90;;;;;;;;;;10230138;28;20506;-72
2023/05/17 09:05:53;;;;;;;16.58;6.43;;;;;;;;;;10240953;28;20099;-72
2023/05/17 09:10:50;;;;;;;13.25;5.72;;;;;;;;;;10228453;28;20053;-71
2023/05/17 09:15:47;;;;;;;14.02;5.95;;;;;;;;;;10238949;28;20048;-71
2023/05/17 09:20:48;;;;;;;11.50;5.07;;;;;;;;;;10225903;28;20511;-72
2023/05/17 09:25:47;;;;;;;16.20;5.70;;;;;;;;;;10252495;28;20044;-72
2023/05/17 09:30:47;;;;;;;11.30;5.60;;;;;;;;;;10205448;28;20073;-71
2023/05/17 09:35:43;;;;;;;16.42;5.93;;;;;;;;;;10237018;28;20052;-72
2023/05/17 09:40:40;;;;;;;12.13;5.82;;;;;;;;;;10205759;28;20096;-72
2023/05/17 09:45:36;;;;;;;12.13;5.55;;;;;;;;;;10223283;28;20115;-73
2023/05/17 09:50:33;;;;;;;16.58;5.47;;;;;;;;;;10233416;28;20069;-72
2023/05/17 09:55:29;;;;;;;11.20;4.70;;;;;;;;;;10215449;28;20061;-72
2023/05/17 10:00:26;;;;;;;11.15;5.45;;;;;;;;;;10193379;28;20052;-72
2023/05/17 10:05:22;;;;;;;14.25;5.45;;;;;;;;;;10244117;28;20053;-72
2023/05/17 10:10:19;;;;;;;10.65;5.38;;;;;;;;;;10270248;28;20064;-73
2023/05/17 10:15:16;;;;;;;13.80;6.28;;;;;;;;;;10228167;28;20045;-73
2023/05/17 10:20:14;;;;;;;14.48;5.72;;;;;;;;;;10254794;28;20077;-73
2023/05/17 10:25:11;;;;;;;11.65;5.35;;;;;;;;;;10227167;28;20655;-73
2023/05/17 10:30:08;;;;;;;13.10;5.25;;;;;;;;;;10251038;28;20510;-73
2023/05/17 10:35:05;;;;;;;11.48;5.38;;;;;;;;;;10225493;28;20325;-74
2023/05/17 10:40:13;;;;;;;13.02;7.25;;;;;;;;;;10236400;28;20129;-73
2023/05/17 10:45:11;;;;;;;11.38;5.35;;;;;;;;;;10226094;28;20540;-73
2023/05/17 10:50:12;;;;;;;8.32;5.43;;;;;;;;;;10218173;28;20045;-73
2023/05/17 10:55:09;;;;;;;11.23;5.70;;;;;;;;;;10225970;28;20045;-73
2023/05/17 11:00:09;;;;;;;10.13;5.75;;;;;;;;;;10202905;28;20073;-73
2023/05/17 11:05:06;;;;;;;12.57;5.10;;;;;;;;;;10225179;28;20111;-73
2023/05/17 11:10:07;;;;;;;9.65;5.07;;;;;;;;;;10196302;28;20152;-72
2023/05/17 11:15:10;;;;;;;13.70;5.60;;;;;;;;;;10224148;28;20399;-71
2023/05/17 11:20:12;;;;;;;10.40;6.38;;;;;;;;;;10208857;28;20498;-72
2023/05/17 11:25:10;;;;;;;8.25;5.05;;;;;;;;;;10206481;28;20332;-73
2023/05/17 11:30:18;;;;;;;8.02;5.10;;;;;;;;;;10198849;28;20060;-73
2023/05/17 11:35:22;;;;;;;9.43;5.35;;;;;;;;;;10249513;28;20102;-72
2023/05/17 11:40:26;;;;;;;13.52;5.05;;;;;;;;;;10278138;28;20060;-72
2023/05/17 11:45:23;;;;;;;10.00;5.55;;;;;;;;;;10243868;28;20045;-71
2023/05/17 11:50:20;;;;;;;15.05;5.18;;;;;;;;;;10263734;28;20042;-72
2023/05/17 11:55:16;;;;;;;11.60;5.35;;;;;;;;;;10233722;28;20049;-72
2023/05/17 12:00:15;;;;;;;10.50;5.20;;;;;;;;;;10252956;28;20057;-72
2023/05/17 12:05:18;;;;;;;8.57;5.20;;;;;;;;;;10246523;28;20139;-72
2023/05/17 12:10:15;;;;;;;7.55;4.80;;;;;;;;;;10250147;28;20050;-72
2023/05/17 12:15:16;;;;;;;9.13;5.78;;;;;;;;;;10231522;28;20753;-72
2023/05/17 12:20:13;;;;;;;10.57;5.25;;;;;;;;;;10233170;28;20054;-72
2023/05/17 12:25:26;;;;;;;12.60;5.35;;;;;;;;;;10230691;28;20080;-73
2023/05/17 12:30:23;;;;;;;10.90;5.95;;;;;;;;;;10216867;28;20057;-72
2023/05/17 12:35:19;;;;;;;10.27;5.75;;;;;;;;;;10214022;28;20100;-71
2023/05/17 12:40:16;;;;;;;14.00;5.82;;;;;;;;;;10196002;28;20042;-72
2023/05/17 12:45:12;;;;;;;11.75;6.22;;;;;;;;;;10207697;28;20061;-72
2023/05/17 12:50:10;;;;;;;10.23;5.72;;;;;;;;;;10195696;28;20046;-73
2023/05/17 12:55:11;;;;;;;12.32;6.60;;;;;;;;;;10228366;28;20041;-72
2023/05/17 13:00:11;;;;;;;13.35;5.75;;;;;;;;;;10276330;28;20053;-72
2023/05/17 13:05:20;;;;;;;8.90;5.68;;;;;;;;;;10235627;28;20049;-72
2023/05/17 13:10:24;;;;;;;10.05;5.90;;;;;;;;;;10271566;28;20454;-72
2023/05/17 13:15:28;;;;;;;6.63;5.00;;;;;;;;;;10231860;28;20041;-72
2023/05/17 13:20:27;;;;;;;9.80;5.97;;;;;;;;;;10235071;28;20081;-72
2023/05/17 13:25:24;;;;;;;11.10;6.30;;;;;;;;;;10232450;28;20044;-72
2023/05/17 13:30:21;;;;;;;6.63;5.30;;;;;;;;;;10236830;28;20047;-72
2023/05/17 13:35:17;;;;;;;8.20;5.38;;;;;;;;;;10228880;28;20056;-72
2023/05/17 13:40:13;;;;;;;7.38;5.70;;;;;;;;;;10194104;28;20407;-71
2023/05/17 13:45:11;;;;;;;10.60;5.75;;;;;;;;;;10209434;28;20488;-72
2023/05/17 13:50:08;;;;;;;10.48;5.57;;;;;;;;;;10193224;28;20186;-72
2023/05/17 13:55:05;;;;;;;9.07;5.50;;;;;;;;;;10226051;28;20554;-73
2023/05/17 14:00:02;;;;;;;9.80;6.35;;;;;;;;;;10254268;28;20053;-71
2023/05/17 14:04:58;;;;;;;10.77;5.88;;;;;;;;;;10224700;28;20055;-72
2023/05/17 14:09:55;;;;;;;10.95;6.38;;;;;;;;;;10249859;28;20042;-72
2023/05/17 14:14:51;;;;;;;8.35;5.35;;;;;;;;;;10221571;28;20518;-71
2023/05/17 14:19:47;;;;;;;11.20;5.63;;;;;;;;;;10212582;28;20050;-72
2023/05/17 14:24:44;;;;;;;15.05;5.50;;;;;;;;;;10210004;28;20072;-72
2023/05/17 14:29:40;;;;;;;15.80;6.35;;;;;;;;;;10207436;28;20054;-72
2023/05/17 14:34:36;;;;;;;18.70;6.45;;;;;;;;;;10200091;28;20072;-71
2023/05/17 14:39:33;;;;;;;13.55;6.38;;;;;;;;;;10207723;28;20057;-72
2023/05/17 14:44:29;;;;;;;13.00;6.85;;;;;;;;;;10215274;28;20037;-72
2023/05/17 14:49:26;;;;;;;8.20;5.55;;;;;;;;;;10272822;28;20052;-71
2023/05/17 14:54:24;;;;;;;8.85;5.82;;;;;;;;;;10252345;28;20151;-73
2023/05/17 14:59:20;;;;;;;8.88;5.45;;;;;;;;;;10277842;28;20041;-72
2023/05/17 15:04:17;;;;;;;8.27;4.88;;;;;;;;;;10247990;28;20462;-72
2023/05/17 15:09:17;;;;;;;9.93;6.07;;;;;;;;;;10252498;28;20045;-72
2023/05/17 15:14:17;;;;;;;8.02;5.35;;;;;;;;;;10217969;28;20045;-72
2023/05/17 15:19:14;;;;;;;13.82;5.93;;;;;;;;;;10241679;28;20071;-72
2023/05/17 15:24:11;;;;;;;13.93;6.15;;;;;;;;;;10217015;28;20127;-72
2023/05/17 15:29:10;;;;;;;13.52;6.35;;;;;;;;;;10215542;28;20054;-72
2023/05/17 15:34:07;;;;;;;15.07;6.38;;;;;;;;;;10198162;28;20042;-72
2023/05/17 15:39:04;;;;;;;12.05;6.35;;;;;;;;;;10197661;28;20556;-72
2023/05/17 15:44:00;;;;;;;9.40;5.68;;;;;;;;;;10227934;28;20446;-72
2023/05/17 15:48:56;;;;;;;12.98;7.50;;;;;;;;;;10278400;28;20049;-72
2023/05/17 15:53:54;;;;;;;14.13;6.28;;;;;;;;;;10264134;28;20069;-72
2023/05/17 15:58:50;;;;;;;12.70;5.72;;;;;;;;;;10278010;28;20047;-72
2023/05/17 16:03:46;;;;;;;10.02;5.18;;;;;;;;;;10228206;28;20124;-72
2023/05/17 16:08:43;;;;;;;11.02;6.05;;;;;;;;;;10276856;28;20051;-72
2023/05/17 16:13:39;;;;;;;11.07;6.00;;;;;;;;;;10224202;28;20075;-72
2023/05/17 16:18:35;;;;;;;9.63;4.88;;;;;;;;;;10277313;28;20140;-72
2023/05/17 16:23:32;;;;;;;11.50;6.40;;;;;;;;;;10207773;28;20279;-72
2023/05/17 16:28:31;;;;;;;13.57;5.30;;;;;;;;;;10246692;28;20046;-72
2023/05/17 16:33:27;;;;;;;9.18;4.82;;;;;;;;;;10202368;28;20049;-72
2023/05/17 16:38:24;;;;;;;11.18;5.50;;;;;;;;;;10208204;28;20522;-72
2023/05/17 16:43:23;;;;;;;12.77;5.15;;;;;;;;;;10215204;28;20108;-72
2023/05/17 16:48:20;;;;;;;8.02;4.80;;;;;;;;;;10211951;28;20054;-72
2023/05/17 16:53:16;;;;;;;8.20;5.78;;;;;;;;;;10198398;28;20046;-72
2023/05/17 16:58:12;;;;;;;11.57;5.13;;;;;;;;;;10275515;28;20049;-72
2023/05/17 17:03:09;;;;;;;8.57;5.10;;;;;;;;;;10225649;28;20566;-72
2023/05/17 17:08:05;;;;;;;9.40;5.28;;;;;;;;;;10274987;28;20049;-72
2023/05/17 17:13:03;;;;;;;11.50;5.65;;;;;;;;;;10212290;28;20045;-72
2023/05/17 17:18:02;;;;;;;10.38;5.75;;;;;;;;;;10194138;28;20138;-72
2023/05/17 17:22:59;;;;;;;11.52;5.82;;;;;;;;;;10194350;28;20052;-72
2023/05/17 17:27:55;;;;;;;12.65;6.45;;;;;;;;;;10272008;28;20045;-72
2023/05/17 17:32:51;;;;;;;16.45;6.70;;;;;;;;;;10194033;28;20079;-72
2023/05/17 17:37:48;;;;;;;12.65;7.72;;;;;;;;;;10260522;28;20125;-72
2023/05/17 17:42:44;;;;;;;13.68;6.55;;;;;;;;;;10193837;28;20053;-72
2023/05/17 17:47:40;;;;;;;13.27;8.00;;;;;;;;;;10235659;28;20651;-72
2023/05/17 17:52:38;;;;;;;11.77;5.38;;;;;;;;;;10193784;28;20096;-72
2023/05/17 17:57:35;;;;;;;10.40;5.35;;;;;;;;;;10218929;28;20065;-73
2023/05/17 18:02:33;;;;;;;11.02;5.95;;;;;;;;;;10193435;28;20065;-72
2023/05/17 18:07:29;;;;;;;14.10;5.95;;;;;;;;;;10265068;28;20128;-72
2023/05/17 18:12:26;;;;;;;15.15;6.13;;;;;;;;;;10258919;28;20076;-72
2023/05/17 18:17:22;;;;;;;9.43;5.32;;;;;;;;;;10263277;28;20037;-72
2023/05/17 18:22:19;;;;;;;12.68;6.07;;;;;;;;;;10255067;28;20052;-72
2023/05/17 18:27:15;;;;;;;8.65;5.00;;;;;;;;;;10261517;28;20091;-72
2023/05/17 18:32:12;;;;;;;14.02;5.43;;;;;;;;;;10257361;28;20068;-72
2023/05/17 18:37:08;;;;;;;10.10;5.03;;;;;;;;;;10266925;28;20041;-72
2023/05/17 18:42:04;;;;;;;8.25;5.00;;;;;;;;;;10239745;28;20065;-72
2023/05/17 18:47:01;;;;;;;9.68;4.93;;;;;;;;;;10264781;28;20091;-72
2023/05/17 18:51:57;;;;;;;8.52;5.15;;;;;;;;;;10211132;28;20038;-72
2023/05/17 18:56:54;;;;;;;9.02;5.07;;;;;;;;;;10262240;28;20056;-71
2023/05/17 19:01:50;;;;;;;10.70;4.72;;;;;;;;;;10202748;28;20108;-72
2023/05/17 19:06:47;;;;;;;9.65;4.63;;;;;;;;;;10227101;28;20069;-71
2023/05/17 19:11:43;;;;;;;12.45;4.60;;;;;;;;;;10199633;28;20045;-71
2023/05/17 19:16:40;;;;;;;10.32;4.90;;;;;;;;;;10231673;28;20392;-71
2023/05/17 19:21:36;;;;;;;10.02;5.15;;;;;;;;;;10199158;28;20038;-73
2023/05/17 19:26:32;;;;;;;9.77;4.88;;;;;;;;;;10207832;28;20046;-72
2023/05/17 19:31:29;;;;;;;9.60;4.35;;;;;;;;;;10198123;28;20042;-72
2023/05/17 19:36:25;;;;;;;7.97;4.03;;;;;;;;;;10263441;28;20422;-72
2023/05/17 19:41:21;;;;;;;11.23;5.00;;;;;;;;;;10255073;28;20034;-72
2023/05/17 19:46:18;;;;;;;12.45;4.60;;;;;;;;;;10250575;28;20461;-72
2023/05/17 19:51:14;;;;;;;9.10;4.80;;;;;;;;;;10230175;28;20095;-72
2023/05/17 19:56:10;;;;;;;9.80;4.78;;;;;;;;;;10247922;28;20041;-72
2023/05/17 20:01:07;;;;;;;10.95;5.50;;;;;;;;;;10231492;28;20049;-72
2023/05/17 20:06:03;;;;;;;9.30;4.88;;;;;;;;;;10245515;28;20048;-71
2023/05/17 20:10:59;;;;;;;8.55;5.03;;;;;;;;;;10215507;28;20092;-71
2023/05/17 20:15:56;;;;;;;11.95;6.25;;;;;;;;;;10243196;28;20041;-71
2023/05/17 20:20:54;;;;;;;10.93;4.40;;;;;;;;;;10209603;28;20073;-72
2023/05/17 20:25:51;;;;;;;12.43;5.00;;;;;;;;;;10214769;28;20042;-72
2023/05/17 20:30:47;;;;;;;10.85;5.75;;;;;;;;;;10194925;28;20396;-72
2023/05/17 20:35:43;;;;;;;10.15;5.25;;;;;;;;;;10239415;28;20041;-71
2023/05/17 20:40:39;;;;;;;11.88;4.85;;;;;;;;;;10254094;28;20073;-72
2023/05/17 20:45:36;;;;;;;7.20;4.13;;;;;;;;;;10237676;28;20049;-72
2023/05/17 20:50:32;;;;;;;11.90;4.85;;;;;;;;;;10249226;28;20042;-71
2023/05/17 20:55:29;;;;;;;9.25;4.65;;;;;;;;;;10234982;28;20076;-71
2023/05/17 21:00:25;;;;;;;13.07;5.13;;;;;;;;;;10220109;28;20097;-72
2023/05/17 21:05:22;;;;;;;8.90;4.47;;;;;;;;;;10230029;28;20052;-71
2023/05/17 21:10:18;;;;;;;9.77;4.43;;;;;;;;;;10195199;28;20049;-71
2023/05/17 21:15:14;;;;;;;10.93;4.82;;;;;;;;;;10223402;28;20058;-71
2023/05/17 21:20:13;;;;;;;7.00;4.45;;;;;;;;;;10194703;28;20045;-71
2023/05/17 21:25:12;;;;;;;11.68;4.45;;;;;;;;;;10196202;28;20050;-71
2023/05/17 21:30:08;;;;;;;17.10;4.57;;;;;;;;;;10193934;28;20104;-71
2023/05/17 21:35:05;;;;;;;14.65;4.35;;;;;;;;;;10226602;28;20054;-71
2023/05/17 21:40:01;;;;;;;8.48;3.67;;;;;;;;;;10275479;28;20476;-71
2023/05/17 21:44:58;;;;;;;11.32;3.78;;;;;;;;;;10226385;28;20533;-71
2023/05/17 21:49:54;;;;;;;12.18;5.65;;;;;;;;;;10275344;28;20110;-71
2023/05/17 21:54:51;;;;;;;7.82;4.03;;;;;;;;;;10223957;28;20042;-71
2023/05/17 21:59:48;;;;;;;12.82;4.25;;;;;;;;;;10272899;28;20059;-71
2023/05/17 22:04:44;;;;;;;10.70;3.85;;;;;;;;;;10219481;28;20528;-71
2023/05/17 22:09:47;;;;;;;7.63;3.60;;;;;;;;;;10242430;28;20092;-71
2023/05/17 22:14:44;;;;;;;;;;;;;;;;;;10235202;28;20445;-71
2023/05/17 22:19:40;;;;;;;10.07;3.75;;;;;;;;;;10232205;28;19922;-71
2023/05/17 22:24:36;;;;;;;8.25;3.65;;;;;;;;;;10232866;28;20840;-71
2023/05/17 22:29:33;;;;;;;7.38;3.60;;;;;;;;;;10221373;28;20471;-71
2023/05/17 22:34:29;;;;;;;5.60;3.40;;;;;;;;;;10215034;28;20045;-71
2023/05/17 22:39:25;;;;;;;7.75;3.47;;;;;;;;;;10211735;28;20455;-71
2023/05/17 22:44:22;;;;;;;7.22;3.80;;;;;;;;;;10199182;28;20046;-70
2023/05/17 22:49:25;;;;;;;11.18;3.95;;;;;;;;;;10192037;28;20061;-71
2023/05/17 22:54:22;;;;;;;10.13;3.42;;;;;;;;;;10210298;28;20061;-71
2023/05/17 22:59:18;;;;;;;9.02;3.78;;;;;;;;;;10192214;28;20038;-71
2023/05/17 23:04:14;;;;;;;9.90;4.03;;;;;;;;;;10211032;28;20048;-71
2023/05/17 23:09:11;;;;;;;8.93;3.70;;;;;;;;;;10272004;28;20041;-71
2023/05/17 23:14:07;;;;;;;10.10;3.78;;;;;;;;;;10212574;28;20484;-71
2023/05/17 23:19:03;;;;;;;9.98;3.70;;;;;;;;;;10253469;28;20042;-71
2023/05/17 23:24:00;;;;;;;8.43;3.90;;;;;;;;;;10229112;28;20049;-71
2023/05/17 23:28:56;;;;;;;8.93;3.83;;;;;;;;;;10238515;28;20104;-71
2023/05/17 23:33:53;;;;;;;12.02;3.80;;;;;;;;;;10211893;28;20049;-71
2023/05/17 23:38:49;;;;;;;12.52;3.92;;;;;;;;;;10224282;28;20065;-71
2023/05/17 23:43:45;;;;;;;15.23;5.53;;;;;;;;;;10209210;28;20053;-71
2023/05/17 23:48:43;;;;;;;12.02;4.47;;;;;;;;;;10203093;28;20054;-71
2023/05/17 23:53:40;;;;;;;10.10;3.50;;;;;;;;;;10204480;28;20454;-71
2023/05/17 23:58:37;;;;;;;8.82;3.65;;;;;;;;;;10212485;28;20050;-71
